Trefriw, United Kingdom
Current Conditions -  °F | °C
As of 5:50 AM on Thursday 29 Jan 2015 (Local Time) from EGOV Reporting Station
Scattered Clouds Scattered Clouds  
Wind Chill: 28°   Ceiling: Unl
Heat Index: 39°   Visibility: 6mi
Dew Point: 30°   Wind: 29mph
Humidity: 70%   Direction: 270°W
Pressure: 29.15"   Gusts: NA
Location:  53.13°N, 3.81°W
Report Text: EGOV 290550Z 27025KT 9999 SCT026 04/M01 Q0987 BLU
Loading
Personal Weather Stations






























Interactive Weather Map New forecast layout! Learn more

10-Day Weather Forecast

Advertisements
Track Severe Weather on mobile